Wetterdaten: Woche 01.06.09 - 07.06.09 (KW23)
Datum Zeit Temperatur Luftfeuchte Luftdruck Niederschlag Windrichtung Wind
01.06.2009 00:00 8,7 C 77 % 1018,3 hPa 0,0 l/m N 1,6 km/h (1 Bft)
01.06.2009 01:00 8,2 C 80 % 1017,9 hPa 0,0 l/m N 3,7 km/h (1 Bft)
01.06.2009 02:00 7,9 C 83 % 1017,3 hPa 0,0 l/m N-NW 5,7 km/h (1 Bft)
01.06.2009 03:00 8,0 C 83 % 1017,1 hPa 0,0 l/m N-NW 6,1 km/h (2 Bft)
01.06.2009 04:00 8,3 C 84 % 1016,8 hPa 0,0 l/m N-NO 8,8 km/h (2 Bft)
01.06.2009 05:00 8,2 C 84 % 1016,7 hPa 0,0 l/m N 7,8 km/h (2 Bft)
01.06.2009 06:00 8,1 C 87 % 1017,1 hPa 0,0 l/m N-NO 5,2 km/h (1 Bft)
01.06.2009 07:00 9,8 C 83 % 1017,2 hPa 0,0 l/m NO 6,3 km/h (2 Bft)
01.06.2009 08:00 11,5 C 77 % 1017,1 hPa 0,0 l/m N-NO 6,5 km/h (2 Bft)
01.06.2009 09:00 12,9 C 75 % 1017,1 hPa 0,0 l/m NO 10,7 km/h (2 Bft)
01.06.2009 10:00 14,0 C 78 % 1017,0 hPa 0,0 l/m NO 16,9 km/h (3 Bft)
01.06.2009 11:00 15,6 C 73 % 1016,8 hPa 0,0 l/m NO 19,0 km/h (3 Bft)
01.06.2009 12:00 16,7 C 70 % 1016,6 hPa 0,0 l/m NO 20,0 km/h (4 Bft)
01.06.2009 13:00 17,5 C 65 % 1016,2 hPa 0,0 l/m NO 20,5 km/h (4 Bft)
01.06.2009 14:00 18,1 C 63 % 1015,8 hPa 0,0 l/m NO 21,4 km/h (4 Bft)
01.06.2009 15:00 18,7 C 59 % 1015,4 hPa 0,0 l/m O-NO 20,1 km/h (4 Bft)
01.06.2009 16:00 19,5 C 52 % 1015,0 hPa 0,0 l/m NO 22,6 km/h (4 Bft)
01.06.2009 17:00 19,7 C 50 % 1014,8 hPa 0,0 l/m NO 20,6 km/h (4 Bft)
01.06.2009 18:00 19,6 C 49 % 1014,5 hPa 0,0 l/m O-NO 18,8 km/h (3 Bft)
01.06.2009 19:00 19,0 C 49 % 1014,8 hPa 0,0 l/m NO 16,5 km/h (3 Bft)
01.06.2009 20:00 17,2 C 55 % 1015,0 hPa 0,0 l/m N-NO 7,6 km/h (2 Bft)
01.06.2009 21:00 14,6 C 67 % 1015,3 hPa 0,0 l/m N-NO 6,5 km/h (2 Bft)
01.06.2009 22:00 13,4 C 74 % 1015,9 hPa 0,0 l/m N-NW 6,5 km/h (2 Bft)
01.06.2009 23:00 12,6 C 78 % 1016,2 hPa 0,0 l/m N 7,9 km/h (2 Bft)
02.06.2009 00:00 12,0 C 81 % 1015,9 hPa 0,0 l/m N 8,3 km/h (2 Bft)
02.06.2009 01:00 11,4 C 85 % 1015,5 hPa 0,0 l/m N-NW 8,6 km/h (2 Bft)
02.06.2009 02:00 11,1 C 85 % 1015,4 hPa 0,0 l/m N-NW 6,8 km/h (2 Bft)
02.06.2009 03:00 10,4 C 84 % 1015,2 hPa 0,0 l/m N-NW 5,9 km/h (2 Bft)
02.06.2009 04:00 9,9 C 83 % 1015,1 hPa 0,0 l/m N-NW 4,5 km/h (1 Bft)
02.06.2009 05:00 8,8 C 87 % 1015,3 hPa 0,0 l/m N-NW 1,6 km/h (1 Bft)
02.06.2009 06:00 9,8 C 81 % 1015,5 hPa 0,0 l/m N-NW 5,3 km/h (1 Bft)
02.06.2009 07:00 11,9 C 73 % 1015,7 hPa 0,0 l/m N-NW 7,8 km/h (2 Bft)
02.06.2009 08:00 13,5 C 71 % 1015,8 hPa 0,0 l/m N-NO 8,7 km/h (2 Bft)
02.06.2009 09:00 14,4 C 69 % 1015,9 hPa 0,0 l/m N-NO 7,6 km/h (2 Bft)
02.06.2009 10:00 16,7 C 61 % 1015,8 hPa 0,0 l/m N-NO 7,6 km/h (2 Bft)
02.06.2009 11:00 18,6 C 51 % 1015,6 hPa 0,0 l/m N 8,8 km/h (2 Bft)
02.06.2009 12:00 19,5 C 49 % 1015,3 hPa 0,0 l/m O 8,6 km/h (2 Bft)
02.06.2009 13:00 18,9 C 56 % 1015,1 hPa 0,0 l/m N-NO 11,0 km/h (2 Bft)
02.06.2009 14:00 20,2 C 54 % 1014,5 hPa 0,0 l/m W-NW 10,1 km/h (2 Bft)
02.06.2009 15:00 19,9 C 53 % 1014,4 hPa 0,0 l/m NO 13,0 km/h (3 Bft)
02.06.2009 16:00 19,4 C 59 % 1014,4 hPa 0,0 l/m S 12,2 km/h (2 Bft)
02.06.2009 17:00 20,8 C 53 % 1014,0 hPa 0,0 l/m SO 8,4 km/h (2 Bft)
02.06.2009 18:00 21,3 C 47 % 1013,7 hPa 0,0 l/m N 12,9 km/h (3 Bft)
02.06.2009 19:00 20,4 C 48 % 1013,7 hPa 0,0 l/m N-NW 8,7 km/h (2 Bft)
02.06.2009 20:00 17,7 C 68 % 1013,9 hPa 0,0 l/m SW 9,7 km/h (2 Bft)
02.06.2009 21:00 15,5 C 76 % 1014,1 hPa 0,0 l/m SW 2,0 km/h (1 Bft)
02.06.2009 22:00 13,4 C 84 % 1014,5 hPa 0,0 l/m N 0,3 km/h (0 Bft)
02.06.2009 23:00 12,7 C 87 % 1014,4 hPa 0,0 l/m N 0,0 km/h (0 Bft)
03.06.2009 00:00 11,8 C 89 % 1014,4 hPa 0,0 l/m N 0,0 km/h (0 Bft)
03.06.2009 01:00 11,1 C 92 % 1014,2 hPa 0,0 l/m N 0,0 km/h (0 Bft)
03.06.2009 02:00 10,9 C 91 % 1014,2 hPa 0,0 l/m N 0,0 km/h (0 Bft)
03.06.2009 03:00 10,2 C 93 % 1014,0 hPa 0,0 l/m N 0,0 km/h (0 Bft)
03.06.2009 04:00 9,6 C 94 % 1013,8 hPa 0,0 l/m N 0,0 km/h (0 Bft)
03.06.2009 05:00 9,0 C 95 % 1013,6 hPa 0,0 l/m N 0,0 km/h (0 Bft)
03.06.2009 06:00 9,4 C 95 % 1013,7 hPa 0,0 l/m N 0,0 km/h (0 Bft)
03.06.2009 07:00 10,9 C 92 % 1014,1 hPa 0,0 l/m N 0,0 km/h (0 Bft)
03.06.2009 08:00 13,4 C 79 % 1014,2 hPa 0,0 l/m N 6,8 km/h (2 Bft)
03.06.2009 09:00 16,1 C 62 % 1013,9 hPa 0,0 l/m N-NW 13,7 km/h (3 Bft)
03.06.2009 10:00 17,2 C 56 % 1013,6 hPa 0,0 l/m N 16,6 km/h (3 Bft)
03.06.2009 11:00 18,1 C 52 % 1013,5 hPa 0,0 l/m NW 18,9 km/h (3 Bft)
03.06.2009 12:00 18,8 C 43 % 1013,2 hPa 0,0 l/m W-NW 18,1 km/h (3 Bft)
03.06.2009 13:00 19,4 C 45 % 1012,8 hPa 0,0 l/m N-NW 20,1 km/h (4 Bft)
03.06.2009 14:00 19,9 C 43 % 1012,4 hPa 0,0 l/m N-NW 18,5 km/h (3 Bft)
03.06.2009 15:00 20,4 C 44 % 1012,0 hPa 0,0 l/m N 16,1 km/h (3 Bft)
03.06.2009 16:00 19,9 C 43 % 1011,8 hPa 0,0 l/m N-NO 18,8 km/h (3 Bft)
03.06.2009 17:00 19,9 C 43 % 1011,6 hPa 0,0 l/m N-NO 18,2 km/h (3 Bft)
03.06.2009 18:00 19,4 C 44 % 1011,5 hPa 0,0 l/m N-NW 19,0 km/h (3 Bft)
03.06.2009 19:00 18,2 C 46 % 1011,3 hPa 0,0 l/m N 18,6 km/h (3 Bft)
03.06.2009 20:00 16,4 C 54 % 1011,2 hPa 0,0 l/m N 6,4 km/h (2 Bft)
03.06.2009 21:00 13,8 C 66 % 1011,5 hPa 0,0 l/m N-NO 5,1 km/h (1 Bft)
03.06.2009 22:00 12,7 C 65 % 1012,3 hPa 0,0 l/m N 7,4 km/h (2 Bft)
03.06.2009 23:00 12,3 C 64 % 1012,4 hPa 0,0 l/m N-NO 6,6 km/h (2 Bft)
04.06.2009 00:00 10,9 C 71 % 1012,3 hPa 0,0 l/m N 5,1 km/h (1 Bft)
04.06.2009 01:00 10,4 C 73 % 1012,3 hPa 0,0 l/m N 6,0 km/h (2 Bft)
04.06.2009 02:00 10,1 C 73 % 1012,1 hPa 0,0 l/m N 2,9 km/h (1 Bft)
04.06.2009 03:00 9,5 C 76 % 1011,9 hPa 0,0 l/m N 4,8 km/h (1 Bft)
04.06.2009 04:00 9,0 C 78 % 1011,8 hPa 0,0 l/m N 3,1 km/h (1 Bft)
04.06.2009 05:00 9,2 C 76 % 1011,7 hPa 0,0 l/m N 3,3 km/h (1 Bft)
04.06.2009 06:00 9,2 C 77 % 1011,9 hPa 0,0 l/m N 5,6 km/h (1 Bft)
04.06.2009 07:00 9,8 C 76 % 1012,0 hPa 0,0 l/m N 6,4 km/h (2 Bft)
04.06.2009 08:00 11,3 C 67 % 1012,2 hPa 0,0 l/m N-NO 9,2 km/h (2 Bft)
04.06.2009 09:00 12,5 C 64 % 1012,3 hPa 0,0 l/m NO 7,5 km/h (2 Bft)
04.06.2009 10:00 13,5 C 59 % 1012,2 hPa 0,0 l/m O-NO 9,5 km/h (2 Bft)
04.06.2009 11:00 14,9 C 56 % 1012,0 hPa 0,0 l/m N-NO 14,9 km/h (3 Bft)
04.06.2009 12:00 15,8 C 51 % 1011,5 hPa 0,0 l/m NW 14,5 km/h (3 Bft)
04.06.2009 13:00 16,5 C 50 % 1011,2 hPa 0,0 l/m NO 16,2 km/h (3 Bft)
04.06.2009 14:00 16,8 C 48 % 1010,9 hPa 0,0 l/m W-NW 12,2 km/h (2 Bft)
04.06.2009 15:00 17,3 C 46 % 1010,7 hPa 0,0 l/m NW 12,3 km/h (3 Bft)
04.06.2009 16:00 17,4 C 48 % 1010,5 hPa 0,0 l/m N-NO 13,6 km/h (3 Bft)
04.06.2009 17:00 17,6 C 47 % 1010,5 hPa 0,0 l/m N-NO 14,5 km/h (3 Bft)
04.06.2009 18:00 17,2 C 46 % 1010,3 hPa 0,0 l/m N-NO 13,2 km/h (3 Bft)
04.06.2009 19:00 16,2 C 50 % 1010,3 hPa 0,0 l/m N-NO 15,3 km/h (3 Bft)
04.06.2009 20:00 14,4 C 55 % 1010,7 hPa 0,0 l/m NO 10,9 km/h (2 Bft)
04.06.2009 21:00 12,6 C 62 % 1010,9 hPa 0,0 l/m NO 4,9 km/h (1 Bft)
04.06.2009 22:00 10,7 C 71 % 1011,0 hPa 0,0 l/m NO 3,1 km/h (1 Bft)
04.06.2009 23:00 9,5 C 77 % 1010,9 hPa 0,0 l/m N 1,1 km/h (0 Bft)
05.06.2009 00:00 8,6 C 81 % 1010,6 hPa 0,0 l/m NO 1,1 km/h (0 Bft)
05.06.2009 01:00 8,6 C 80 % 1010,4 hPa 0,0 l/m N-NO 3,5 km/h (1 Bft)
05.06.2009 02:00 7,5 C 83 % 1010,2 hPa 0,0 l/m N 1,5 km/h (1 Bft)
05.06.2009 03:00 6,5 C 85 % 1009,8 hPa 0,0 l/m N 1,9 km/h (1 Bft)
05.06.2009 04:00 5,6 C 87 % 1009,6 hPa 0,0 l/m N 0,0 km/h (0 Bft)
05.06.2009 05:00 5,1 C 90 % 1009,7 hPa 0,0 l/m N 0,4 km/h (0 Bft)
05.06.2009 06:00 5,4 C 89 % 1009,8 hPa 0,0 l/m N 0,7 km/h (0 Bft)
05.06.2009 07:00 8,2 C 82 % 1009,7 hPa 0,0 l/m N 1,5 km/h (1 Bft)
05.06.2009 08:00 11,1 C 71 % 1009,4 hPa 0,0 l/m O 5,7 km/h (1 Bft)
05.06.2009 09:00 12,4 C 61 % 1009,3 hPa 0,0 l/m NO 7,2 km/h (2 Bft)
05.06.2009 10:00 14,1 C 55 % 1008,8 hPa 0,0 l/m N-NO 8,0 km/h (2 Bft)
05.06.2009 11:00 15,7 C 54 % 1008,2 hPa 0,0 l/m W-NW 11,3 km/h (2 Bft)
05.06.2009 12:00 17,0 C 48 % 1007,6 hPa 0,0 l/m W-SW 10,7 km/h (2 Bft)
05.06.2009 13:00 18,2 C 43 % 1006,9 hPa 0,0 l/m SO 9,3 km/h (2 Bft)
05.06.2009 14:00 19,2 C 42 % 1006,2 hPa 0,0 l/m N-NO 12,2 km/h (2 Bft)
05.06.2009 15:00 19,9 C 41 % 1005,4 hPa 0,0 l/m O-SO 11,0 km/h (2 Bft)
05.06.2009 16:00 20,1 C 40 % 1004,7 hPa 0,0 l/m N-NO 10,5 km/h (2 Bft)
05.06.2009 17:00 19,8 C 41 % 1004,6 hPa 0,0 l/m O 9,1 km/h (2 Bft)
05.06.2009 18:00 19,4 C 41 % 1004,0 hPa 0,0 l/m O 8,9 km/h (2 Bft)
05.06.2009 19:00 18,9 C 45 % 1003,6 hPa 0,0 l/m O-NO 11,4 km/h (2 Bft)
05.06.2009 20:00 17,9 C 48 % 1003,7 hPa 0,0 l/m O-NO 10,1 km/h (2 Bft)
05.06.2009 21:00 16,4 C 53 % 1003,7 hPa 0,0 l/m O-NO 7,8 km/h (2 Bft)
05.06.2009 22:00 15,3 C 55 % 1003,4 hPa 0,0 l/m NO 8,7 km/h (2 Bft)
05.06.2009 23:00 14,8 C 57 % 1002,6 hPa 0,0 l/m NO 8,2 km/h (2 Bft)
06.06.2009 00:00 14,2 C 58 % 1001,8 hPa 0,0 l/m N-NO 6,7 km/h (2 Bft)
06.06.2009 01:00 13,5 C 63 % 1001,0 hPa 0,2 l/m N 6,4 km/h (2 Bft)
06.06.2009 02:00 11,5 C 81 % 999,7 hPa 0,2 l/m N 6,5 km/h (2 Bft)
06.06.2009 03:00 10,5 C 85 % 998,6 hPa 0,0 l/m N 7,2 km/h (2 Bft)
06.06.2009 04:00 10,6 C 85 % 998,1 hPa 0,0 l/m N-NO 6,4 km/h (2 Bft)
06.06.2009 05:00 10,2 C 89 % 997,6 hPa 0,0 l/m N-NO 12,0 km/h (2 Bft)
06.06.2009 06:00 10,3 C 91 % 996,6 hPa 0,2 l/m N-NO 8,7 km/h (2 Bft)
06.06.2009 07:00 11,2 C 88 % 996,3 hPa 0,0 l/m N-NO 5,9 km/h (2 Bft)
06.06.2009 08:00 11,3 C 91 % 997,0 hPa 0,8 l/m N-NO 3,5 km/h (1 Bft)
06.06.2009 09:00 11,7 C 92 % 997,3 hPa 1,4 l/m W-SW 3,9 km/h (1 Bft)
06.06.2009 10:00 11,3 C 94 % 997,8 hPa 7,4 l/m S-SW 7,6 km/h (2 Bft)
06.06.2009 11:00 11,5 C 96 % 998,0 hPa 3,4 l/m SW 12,1 km/h (2 Bft)
06.06.2009 12:00 11,2 C 97 % 998,2 hPa 1,0 l/m SW 18,8 km/h (3 Bft)
06.06.2009 13:00 12,3 C 96 % 998,0 hPa 0,0 l/m W-SW 22,5 km/h (4 Bft)
06.06.2009 14:00 12,9 C 94 % 998,3 hPa 0,0 l/m SW 20,8 km/h (4 Bft)
06.06.2009 15:00 13,3 C 94 % 998,0 hPa 0,2 l/m S-SW 24,3 km/h (4 Bft)
06.06.2009 16:00 13,9 C 92 % 997,8 hPa 0,0 l/m SW 25,2 km/h (4 Bft)
06.06.2009 17:00 13,5 C 90 % 998,7 hPa 4,4 l/m W-SW 18,5 km/h (3 Bft)
06.06.2009 18:00 11,5 C 94 % 998,6 hPa 4,4 l/m SW 11,4 km/h (2 Bft)
06.06.2009 19:00 11,9 C 96 % 999,3 hPa 0,2 l/m SW 26,3 km/h (4 Bft)
06.06.2009 20:00 11,2 C 95 % 999,6 hPa 0,0 l/m SW 23,2 km/h (4 Bft)
06.06.2009 21:00 10,9 C 95 % 1000,2 hPa 0,0 l/m W-SW 24,9 km/h (4 Bft)
06.06.2009 22:00 10,9 C 97 % 1000,6 hPa 0,0 l/m SW 19,2 km/h (3 Bft)
06.06.2009 23:00 10,6 C 97 % 1000,9 hPa 0,0 l/m SW 16,2 km/h (3 Bft)
07.06.2009 00:00 10,5 C 96 % 1001,2 hPa 0,0 l/m SW 11,6 km/h (2 Bft)
07.06.2009 01:00 10,4 C 96 % 1001,3 hPa 0,0 l/m SW 13,4 km/h (3 Bft)
07.06.2009 02:00 10,2 C 96 % 1001,7 hPa 0,2 l/m SW 13,6 km/h (3 Bft)
07.06.2009 03:00 10,2 C 95 % 1002,1 hPa 0,0 l/m W-SW 13,8 km/h (3 Bft)
07.06.2009 04:00 9,9 C 96 % 1002,4 hPa 0,0 l/m SW 10,8 km/h (2 Bft)
07.06.2009 05:00 9,8 C 96 % 1002,8 hPa 0,0 l/m SW 9,5 km/h (2 Bft)
07.06.2009 06:00 10,2 C 96 % 1003,2 hPa 0,0 l/m SW 10,9 km/h (2 Bft)
07.06.2009 07:00 11,6 C 93 % 1003,7 hPa 0,0 l/m SW 18,2 km/h (3 Bft)
07.06.2009 08:00 13,2 C 86 % 1004,3 hPa 0,0 l/m SW 22,9 km/h (4 Bft)
07.06.2009 09:00 14,4 C 79 % 1004,5 hPa 0,0 l/m SW 24,1 km/h (4 Bft)
07.06.2009 10:00 15,4 C 73 % 1004,8 hPa 0,0 l/m W-SW 21,4 km/h (4 Bft)
07.06.2009 11:00 17,4 C 66 % 1004,7 hPa 0,0 l/m SW 24,4 km/h (4 Bft)
07.06.2009 12:00 18,7 C 60 % 1004,5 hPa 0,0 l/m SW 27,2 km/h (4 Bft)
07.06.2009 13:00 18,9 C 55 % 1004,3 hPa 0,0 l/m W-SW 27,9 km/h (4 Bft)
07.06.2009 14:00 19,4 C 54 % 1004,0 hPa 0,0 l/m SW 29,9 km/h (5 Bft)
07.06.2009 15:00 20,0 C 49 % 1004,0 hPa 0,0 l/m W 28,6 km/h (4 Bft)
07.06.2009 16:00 19,6 C 50 % 1004,1 hPa 0,0 l/m W-NW 28,8 km/h (5 Bft)
07.06.2009 17:00 19,8 C 49 % 1004,2 hPa 0,0 l/m W-NW 25,2 km/h (4 Bft)
07.06.2009 18:00 18,8 C 51 % 1004,4 hPa 0,0 l/m W-SW 23,1 km/h (4 Bft)
07.06.2009 19:00 16,9 C 58 % 1005,4 hPa 0,0 l/m W-NW 20,1 km/h (4 Bft)
07.06.2009 20:00 16,1 C 61 % 1006,4 hPa 0,0 l/m W-SW 11,0 km/h (2 Bft)
07.06.2009 21:00 15,3 C 63 % 1007,3 hPa 0,0 l/m W-SW 14,1 km/h (3 Bft)
07.06.2009 22:00 14,3 C 62 % 1008,2 hPa 0,0 l/m W-SW 15,4 km/h (3 Bft)
07.06.2009 23:00 13,0 C 64 % 1008,7 hPa 0,0 l/m W-SW 9,5 km/h (2 Bft)
Min-Datum _ 05.06.09 05.06.09 06.06.09 - - 01.06.09
_ Min-Zeit 06:05 15:30 07:00 - - 00:00
Minimum _ 4,8 C 38 % 996,1 hPa - - 0,0 km/h (0 Bft)
Max-Datum _ 02.06.09 03.06.09 01.06.09 06.06.09 - 07.06.09
_ Max-Zeit 18:00 05:20 00:00 10:50 - 14:05
Maximum _ 21,7 C 99 % 1018,6 hPa 7,4 l/m - 46,7 km/h
W-SW (6 Bft)
Durchschnitt _ 13,9 C 70 % 1009,4 hPa #24,0 l/m N 11,1 km/h (2 Bft)